sensor_id;sensor_type;location;lat;lon;timestamp;pressure;altitude;pressure_sealevel;temperature;humidity
6500;BME280;3283;52.330;9.772;2022-11-15T05:02:43;100282.81;;;9.29;100.00
6500;BME280;3283;52.330;9.772;2022-11-15T05:05:27;100282.53;;;9.51;100.00
6500;BME280;3283;52.330;9.772;2022-11-15T05:07:52;100278.75;;;9.70;100.00
6500;BME280;3283;52.330;9.772;2022-11-15T05:10:18;100285.75;;;10.28;100.00
6500;BME280;3283;52.330;9.772;2022-11-15T05:12:43;100281.88;;;10.51;100.00
6500;BME280;3283;52.330;9.772;2022-11-15T05:15:09;100289.13;;;10.36;100.00
6500;BME280;3283;52.330;9.772;2022-11-15T05:17:34;100294.16;;;10.50;100.00
6500;BME280;3283;52.330;9.772;2022-11-15T05:20:00;100294.88;;;10.57;100.00
6500;BME280;3283;52.330;9.772;2022-11-15T05:22:25;100297.50;;;10.57;100.00
6500;BME280;3283;52.330;9.772;2022-11-15T05:24:51;100298.38;;;10.59;100.00
6500;BME280;3283;52.330;9.772;2022-11-15T05:27:17;100295.69;;;10.62;100.00
6500;BME280;3283;52.330;9.772;2022-11-15T05:29:42;100298.28;;;10.65;100.00
6500;BME280;3283;52.330;9.772;2022-11-15T05:32:09;100300.19;;;10.55;100.00
6500;BME280;3283;52.330;9.772;2022-11-15T05:34:35;100298.47;;;10.53;100.00
6500;BME280;3283;52.330;9.772;2022-11-15T05:37:00;100297.78;;;10.43;100.00
6500;BME280;3283;52.330;9.772;2022-11-15T05:39:26;100288.97;;;10.45;100.00
6500;BME280;3283;52.330;9.772;2022-11-15T05:41:54;100295.16;;;10.41;100.00
6500;BME280;3283;52.330;9.772;2022-11-15T05:44:22;100296.00;;;10.45;100.00
6500;BME280;3283;52.330;9.772;2022-11-15T05:46:50;100292.50;;;10.44;100.00
6500;BME280;3283;52.330;9.772;2022-11-15T05:49:25;100290.72;;;10.45;100.00
6500;BME280;3283;52.330;9.772;2022-11-15T05:51:54;100291.59;;;10.45;100.00
6500;BME280;3283;52.330;9.772;2022-11-15T05:54:20;100290.41;;;10.62;100.00
6500;BME280;3283;52.330;9.772;2022-11-15T05:56:48;100286.88;;;10.64;100.00
6500;BME280;3283;52.330;9.772;2022-11-15T05:59:14;100285.78;;;10.75;100.00
6500;BME280;3283;52.330;9.772;2022-11-15T06:01:39;100292.00;;;10.72;100.00
6500;BME280;3283;52.330;9.772;2022-11-15T06:04:05;100293.72;;;10.73;100.00
6500;BME280;3283;52.330;9.772;2022-11-15T06:06:31;100301.66;;;10.70;100.00
6500;BME280;3283;52.330;9.772;2022-11-15T06:08:56;100300.16;;;10.57;100.00
6500;BME280;3283;52.330;9.772;2022-11-15T06:11:22;100300.25;;;10.52;100.00
6500;BME280;3283;52.330;9.772;2022-11-15T06:13:47;100297.63;;;10.52;100.00
6500;BME280;3283;52.330;9.772;2022-11-15T06:16:12;100293.25;;;10.50;100.00
6500;BME280;3283;52.330;9.772;2022-11-15T06:18:38;100295.00;;;10.52;100.00
6500;BME280;3283;52.330;9.772;2022-11-15T06:21:04;100302.94;;;10.48;100.00
6500;BME280;3283;52.330;9.772;2022-11-15T06:23:34;100300.16;;;10.57;100.00
6500;BME280;3283;52.330;9.772;2022-11-15T06:26:00;100295.91;;;10.48;100.00
6500;BME280;3283;52.330;9.772;2022-11-15T06:28:31;100294.84;;;10.60;100.00
6500;BME280;3283;52.330;9.772;2022-11-15T06:31:08;100293.00;;;10.65;100.00
6500;BME280;3283;52.330;9.772;2022-11-15T06:33:34;100290.81;;;10.40;100.00
6500;BME280;3283;52.330;9.772;2022-11-15T06:36:04;100282.28;;;10.26;100.00
6500;BME280;3283;52.330;9.772;2022-11-15T06:38:29;100290.13;;;10.29;100.00
6500;BME280;3283;52.330;9.772;2022-11-15T06:40:55;100289.34;;;10.24;100.00
6500;BME280;3283;52.330;9.772;2022-11-15T06:43:20;100288.47;;;10.22;100.00
6500;BME280;3283;52.330;9.772;2022-11-15T06:45:45;100289.34;;;10.21;100.00
6500;BME280;3283;52.330;9.772;2022-11-15T06:48:11;100289.41;;;10.18;100.00
6500;BME280;3283;52.330;9.772;2022-11-15T06:50:36;100292.94;;;10.17;100.00
6500;BME280;3283;52.330;9.772;2022-11-15T06:53:03;100295.66;;;10.11;100.00
6500;BME280;3283;52.330;9.772;2022-11-15T06:55:29;100296.69;;;10.02;100.00
6500;BME280;3283;52.330;9.772;2022-11-15T06:57:55;100299.53;;;9.87;100.00
6500;BME280;3283;52.330;9.772;2022-11-15T07:00:21;100303.25;;;9.72;100.00
6500;BME280;3283;52.330;9.772;2022-11-15T07:02:47;100300.72;;;9.64;100.00
6500;BME280;3283;52.330;9.772;2022-11-15T07:05:12;100302.41;;;9.70;100.00
6500;BME280;3283;52.330;9.772;2022-11-15T07:07:38;100304.94;;;9.76;100.00
6500;BME280;3283;52.330;9.772;2022-11-15T07:10:04;100306.75;;;9.74;100.00
6500;BME280;3283;52.330;9.772;2022-11-15T07:12:30;100303.25;;;9.72;100.00
6500;BME280;3283;52.330;9.772;2022-11-15T07:14:55;100311.19;;;9.69;100.00
6500;BME280;3283;52.330;9.772;2022-11-15T07:17:20;100311.25;;;9.66;100.00
6500;BME280;3283;52.330;9.772;2022-11-15T07:19:46;100319.22;;;9.58;100.00
6500;BME280;3283;52.330;9.772;2022-11-15T07:22:11;100310.44;;;9.61;100.00
6500;BME280;3283;52.330;9.772;2022-11-15T07:24:36;100312.28;;;9.54;100.00
6500;BME280;3283;52.330;9.772;2022-11-15T07:27:02;100321.94;;;9.51;100.00
6500;BME280;3283;52.330;9.772;2022-11-15T07:29:28;100307.91;;;9.53;100.00
6500;BME280;3283;52.330;9.772;2022-11-15T07:31:53;100316.63;;;9.55;100.00
6500;BME280;3283;52.330;9.772;2022-11-15T07:34:19;100313.09;;;9.56;100.00
6500;BME280;3283;52.330;9.772;2022-11-15T07:36:44;100323.44;;;9.70;100.00
6500;BME280;3283;52.330;9.772;2022-11-15T07:39:10;100325.91;;;9.79;100.00
6500;BME280;3283;52.330;9.772;2022-11-15T07:41:37;100325.91;;;9.79;100.00
6500;BME280;3283;52.330;9.772;2022-11-15T07:44:03;100321.59;;;9.77;100.00
6500;BME280;3283;52.330;9.772;2022-11-15T07:46:29;100315.50;;;9.75;100.00
6500;BME280;3283;52.330;9.772;2022-11-15T07:48:54;100312.00;;;9.74;100.00
6500;BME280;3283;52.330;9.772;2022-11-15T07:51:20;100310.13;;;9.82;100.00
6500;BME280;3283;52.330;9.772;2022-11-15T07:53:45;100311.72;;;9.91;100.00
6500;BME280;3283;52.330;9.772;2022-11-15T07:56:11;100311.69;;;9.96;100.00
6500;BME280;3283;52.330;9.772;2022-11-15T07:58:37;100310.75;;;9.98;100.00
6500;BME280;3283;52.330;9.772;2022-11-15T08:01:06;100313.44;;;9.95;100.00
6500;BME280;3283;52.330;9.772;2022-11-15T08:03:33;100310.72;;;10.01;100.00
6500;BME280;3283;52.330;9.772;2022-11-15T08:05:58;100315.88;;;10.06;100.00
6500;BME280;3283;52.330;9.772;2022-11-15T08:08:24;100311.53;;;10.05;100.00
6500;BME280;3283;52.330;9.772;2022-11-15T08:10:49;100310.59;;;10.09;100.00
6500;BME280;3283;52.330;9.772;2022-11-15T08:13:15;100308.75;;;10.15;100.00
6500;BME280;3283;52.330;9.772;2022-11-15T08:15:41;100310.44;;;10.18;100.00
6500;BME280;3283;52.330;9.772;2022-11-15T08:18:13;100313.91;;;10.23;100.00
6500;BME280;3283;52.330;9.772;2022-11-15T08:20:39;100305.75;;;10.38;100.00
6500;BME280;3283;52.330;9.772;2022-11-15T08:23:05;100308.94;;;10.56;100.00
6500;BME280;3283;52.330;9.772;2022-11-15T08:25:32;100312.19;;;10.70;100.00
6500;BME280;3283;52.330;9.772;2022-11-15T08:28:00;100312.00;;;10.81;100.00
6500;BME280;3283;52.330;9.772;2022-11-15T08:30:26;100311.84;;;10.88;100.00
6500;BME280;3283;52.330;9.772;2022-11-15T08:32:52;100313.50;;;10.94;100.00
6500;BME280;3283;52.330;9.772;2022-11-15T08:35:19;100316.03;;;10.98;100.00
6500;BME280;3283;52.330;9.772;2022-11-15T08:37:45;100315.09;;;11.03;100.00
6500;BME280;3283;52.330;9.772;2022-11-15T08:40:10;100311.50;;;11.05;100.00
6500;BME280;3283;52.330;9.772;2022-11-15T08:42:36;100312.16;;;11.18;100.00
6500;BME280;3283;52.330;9.772;2022-11-15T08:45:03;100306.66;;;11.28;100.00
6500;BME280;3283;52.330;9.772;2022-11-15T08:47:28;100301.69;;;11.57;100.00
6500;BME280;3283;52.330;9.772;2022-11-15T08:49:54;100302.06;;;11.78;100.00
6500;BME280;3283;52.330;9.772;2022-11-15T08:52:19;100283.66;;;11.77;100.00
6500;BME280;3283;52.330;9.772;2022-11-15T08:54:45;100307.06;;;11.92;100.00
6500;BME280;3283;52.330;9.772;2022-11-15T08:57:11;100303.38;;;11.99;100.00
6500;BME280;3283;52.330;9.772;2022-11-15T08:59:37;100294.16;;;12.16;100.00
6500;BME280;3283;52.330;9.772;2022-11-15T09:02:03;100294.84;;;12.24;100.00
6500;BME280;3283;52.330;9.772;2022-11-15T09:04:31;100293.81;;;12.63;100.00
6500;BME280;3283;52.330;9.772;2022-11-15T09:06:57;100293.69;;;12.68;100.00
6500;BME280;3283;52.330;9.772;2022-11-15T09:09:22;100299.41;;;12.51;100.00
6500;BME280;3283;52.330;9.772;2022-11-15T09:11:48;100292.47;;;12.49;100.00
6500;BME280;3283;52.330;9.772;2022-11-15T09:14:14;100290.75;;;12.46;100.00
6500;BME280;3283;52.330;9.772;2022-11-15T09:16:39;100289.94;;;12.44;100.00
6500;BME280;3283;52.330;9.772;2022-11-15T09:19:05;100285.56;;;12.43;100.00
6500;BME280;3283;52.330;9.772;2022-11-15T09:21:33;100287.88;;;12.55;100.00
6500;BME280;3283;52.330;9.772;2022-11-15T09:23:59;100285.09;;;12.60;100.00
6500;BME280;3283;52.330;9.772;2022-11-15T09:26:24;100282.25;;;12.68;100.00
6500;BME280;3283;52.330;9.772;2022-11-15T09:28:50;100277.13;;;12.63;100.00
6500;BME280;3283;52.330;9.772;2022-11-15T09:31:16;100290.06;;;12.72;100.00
6500;BME280;3283;52.330;9.772;2022-11-15T09:33:44;100281.28;;;12.72;100.00
6500;BME280;3283;52.330;9.772;2022-11-15T09:36:10;100281.19;;;12.75;100.00
6500;BME280;3283;52.330;9.772;2022-11-15T09:38:36;100283.50;;;12.87;100.00
6500;BME280;3283;52.330;9.772;2022-11-15T09:49:19;100294.53;;;13.01;99.75
6500;BME280;3283;52.330;9.772;2022-11-15T09:51:47;100289.19;;;13.04;99.58
6500;BME280;3283;52.330;9.772;2022-11-15T09:57:04;100293.72;;;12.99;99.91
6500;BME280;3283;52.330;9.772;2022-11-15T10:03:10;100284.25;;;12.92;99.96
6500;BME280;3283;52.330;9.772;2022-11-15T10:05:19;100289.09;;;13.07;99.73
6500;BME280;3283;52.330;9.772;2022-11-15T10:07:58;100285.22;;;13.21;99.35
6500;BME280;3283;52.330;9.772;2022-11-15T10:10:39;100280.47;;;13.32;98.30
6500;BME280;3283;52.330;9.772;2022-11-15T10:13:18;100279.34;;;13.40;98.39
6500;BME280;3283;52.330;9.772;2022-11-15T10:15:46;100271.13;;;13.50;97.85
6500;BME280;3283;52.330;9.772;2022-11-15T10:18:21;100268.88;;;13.65;95.23
6500;BME280;3283;52.330;9.772;2022-11-15T10:20:59;100270.47;;;13.71;93.90
6500;BME280;3283;52.330;9.772;2022-11-15T10:23:28;100282.03;;;13.68;93.98
6500;BME280;3283;52.330;9.772;2022-11-15T10:25:57;100274.13;;;13.67;94.49
6500;BME280;3283;52.330;9.772;2022-11-15T10:28:29;100265.84;;;13.78;94.30
6500;BME280;3283;52.330;9.772;2022-11-15T10:30:58;100273.53;;;13.85;94.46
6500;BME280;3283;52.330;9.772;2022-11-15T10:33:36;100273.25;;;13.94;92.70
6500;BME280;3283;52.330;9.772;2022-11-15T10:38:33;100259.25;;;13.91;92.59
6500;BME280;3283;52.330;9.772;2022-11-15T10:41:07;100256.41;;;13.97;92.75
6500;BME280;3283;52.330;9.772;2022-11-15T10:43:32;100257.09;;;14.04;92.88
6500;BME280;3283;52.330;9.772;2022-11-15T10:46:19;100250.00;;;14.04;92.49
6500;BME280;3283;52.330;9.772;2022-11-15T10:48:44;100250.50;;;14.15;91.92
6500;BME280;3283;52.330;9.772;2022-11-15T10:51:22;100241.88;;;14.10;91.67
6500;BME280;3283;52.330;9.772;2022-11-15T10:53:54;100243.41;;;14.17;91.20
6500;BME280;3283;52.330;9.772;2022-11-15T10:56:21;100245.66;;;14.28;90.32
6500;BME280;3283;52.330;9.772;2022-11-15T11:01:21;100234.50;;;14.46;90.03
6500;BME280;3283;52.330;9.772;2022-11-15T11:04:02;100246.75;;;14.49;89.68
6500;BME280;3283;52.330;9.772;2022-11-15T11:06:29;100249.72;;;14.65;88.81
6500;BME280;3283;52.330;9.772;2022-11-15T11:11:24;100233.81;;;15.13;86.01
6500;BME280;3283;52.330;9.772;2022-11-15T11:13:49;100233.13;;;15.31;84.42
6500;BME280;3283;52.330;9.772;2022-11-15T11:24:47;100207.47;;;15.32;83.17
6500;BME280;3283;52.330;9.772;2022-11-15T11:40:21;100200.25;;;14.65;86.40
6500;BME280;3283;52.330;9.772;2022-11-15T11:48:42;100200.28;;;14.89;86.23
6500;BME280;3283;52.330;9.772;2022-11-15T11:53:57;100197.56;;;14.90;85.40
6500;BME280;3283;52.330;9.772;2022-11-15T11:56:36;100192.41;;;14.87;85.05
6500;BME280;3283;52.330;9.772;2022-11-15T12:01:49;100188.97;;;15.07;84.41
6500;BME280;3283;52.330;9.772;2022-11-15T12:04:27;100183.97;;;15.23;83.86
6500;BME280;3283;52.330;9.772;2022-11-15T12:06:59;100178.50;;;15.04;84.52
6500;BME280;3283;52.330;9.772;2022-11-15T12:14:52;100176.97;;;14.50;87.60
6500;BME280;3283;52.330;9.772;2022-11-15T12:17:24;100172.09;;;14.38;88.08
6500;BME280;3283;52.330;9.772;2022-11-15T12:19:52;100174.34;;;14.23;89.08
6500;BME280;3283;52.330;9.772;2022-11-15T12:22:35;100163.75;;;14.23;88.92
6500;BME280;3283;52.330;9.772;2022-11-15T12:25:18;100141.75;;;13.98;90.03
6500;BME280;3283;52.330;9.772;2022-11-15T12:28:07;100154.84;;;14.01;90.60
6500;BME280;3283;52.330;9.772;2022-11-15T12:33:36;100164.00;;;14.17;89.41
6500;BME280;3283;52.330;9.772;2022-11-15T12:36:51;100158.00;;;14.12;89.76
6500;BME280;3283;52.330;9.772;2022-11-15T12:39:09;100155.41;;;14.11;89.83
6500;BME280;3283;52.330;9.772;2022-11-15T12:41:39;100147.34;;;14.14;89.73
6500;BME280;3283;52.330;9.772;2022-11-15T12:44:11;100153.41;;;14.17;90.04
6500;BME280;3283;52.330;9.772;2022-11-15T13:02:26;100124.56;;;14.35;87.99
6500;BME280;3283;52.330;9.772;2022-11-15T13:04:55;100129.13;;;14.29;88.37
6500;BME280;3283;52.330;9.772;2022-11-15T13:17:52;100102.34;;;14.39;88.33
6500;BME280;3283;52.330;9.772;2022-11-15T13:23:07;100105.63;;;14.45;88.15
6500;BME280;3283;52.330;9.772;2022-11-15T13:30:58;100092.19;;;14.51;87.30
6500;BME280;3283;52.330;9.772;2022-11-15T13:33:31;100098.31;;;14.53;87.49
6500;BME280;3283;52.330;9.772;2022-11-15T13:35:59;100086.78;;;14.54;87.30
6500;BME280;3283;52.330;9.772;2022-11-15T13:38:34;100091.00;;;14.60;87.41
6500;BME280;3283;52.330;9.772;2022-11-15T13:41:20;100078.78;;;14.56;87.68
6500;BME280;3283;52.330;9.772;2022-11-15T13:43:49;100079.84;;;14.52;87.35
6500;BME280;3283;52.330;9.772;2022-11-15T13:46:20;100078.63;;;14.61;87.73
6500;BME280;3283;52.330;9.772;2022-11-15T13:48:56;100078.91;;;14.53;88.34
6500;BME280;3283;52.330;9.772;2022-11-15T13:54:06;100075.97;;;14.61;88.35
6500;BME280;3283;52.330;9.772;2022-11-15T13:56:34;100065.09;;;14.43;89.12
6500;BME280;3283;52.330;9.772;2022-11-15T13:59:09;100057.72;;;14.28;90.04
6500;BME280;3283;52.330;9.772;2022-11-15T14:01:34;100046.28;;;14.27;89.91
6500;BME280;3283;52.330;9.772;2022-11-15T14:04:00;100057.81;;;14.26;90.37
6500;BME280;3283;52.330;9.772;2022-11-15T14:06:28;100055.38;;;14.20;90.40
6500;BME280;3283;52.330;9.772;2022-11-15T14:11:25;100054.56;;;14.18;90.61
6500;BME280;3283;52.330;9.772;2022-11-15T14:18:59;100042.22;;;13.94;92.03
6500;BME280;3283;52.330;9.772;2022-11-15T14:21:25;100042.78;;;13.79;92.98
6500;BME280;3283;52.330;9.772;2022-11-15T14:23:50;100041.03;;;13.78;93.29
6500;BME280;3283;52.330;9.772;2022-11-15T14:28:54;100051.13;;;13.66;94.53
6500;BME280;3283;52.330;9.772;2022-11-15T14:31:20;100043.47;;;13.59;94.53
6500;BME280;3283;52.330;9.772;2022-11-15T14:33:46;100045.41;;;13.54;95.44
6500;BME280;3283;52.330;9.772;2022-11-15T14:36:17;100044.75;;;13.47;96.12
6500;BME280;3283;52.330;9.772;2022-11-15T14:38:43;100033.63;;;13.37;96.81
6500;BME280;3283;52.330;9.772;2022-11-15T14:43:44;100032.53;;;13.16;98.35
6500;BME280;3283;52.330;9.772;2022-11-15T14:46:09;100032.69;;;13.12;99.02
6500;BME280;3283;52.330;9.772;2022-11-15T14:48:34;100031.16;;;13.05;99.56
6500;BME280;3283;52.330;9.772;2022-11-15T14:51:00;100035.34;;;13.10;99.65
6500;BME280;3283;52.330;9.772;2022-11-15T14:53:25;100014.53;;;13.01;99.67
6500;BME280;3283;52.330;9.772;2022-11-15T14:55:51;100027.28;;;13.15;99.61
6500;BME280;3283;52.330;9.772;2022-11-15T14:58:16;100028.31;;;13.11;99.81
6500;BME280;3283;52.330;9.772;2022-11-15T15:00:42;100022.88;;;13.15;99.86
6500;BME280;3283;52.330;9.772;2022-11-15T15:03:08;100022.00;;;13.15;99.81
6500;BME280;3283;52.330;9.772;2022-11-15T15:05:36;100019.44;;;13.13;99.71
6500;BME280;3283;52.330;9.772;2022-11-15T15:08:03;100023.56;;;13.22;99.04
6500;BME280;3283;52.330;9.772;2022-11-15T15:10:32;100020.88;;;13.24;98.82
6500;BME280;3283;52.330;9.772;2022-11-15T15:12:58;100016.78;;;13.13;98.80
6500;BME280;3283;52.330;9.772;2022-11-15T15:15:26;100014.88;;;13.17;98.88
6500;BME280;3283;52.330;9.772;2022-11-15T15:17:52;100015.75;;;13.17;98.42
6500;BME280;3283;52.330;9.772;2022-11-15T15:20:17;100008.84;;;13.13;97.94
6500;BME280;3283;52.330;9.772;2022-11-15T15:22:43;100018.28;;;13.22;97.31
6500;BME280;3283;52.330;9.772;2022-11-15T15:27:45;100012.25;;;13.17;97.03
6500;BME280;3283;52.330;9.772;2022-11-15T15:30:11;100014.94;;;13.15;96.90
6500;BME280;3283;52.330;9.772;2022-11-15T15:32:37;100006.22;;;13.13;97.28
6500;BME280;3283;52.330;9.772;2022-11-15T15:35:03;100003.63;;;13.12;97.54
6500;BME280;3283;52.330;9.772;2022-11-15T15:37:29;99996.56;;;13.12;97.30
6500;BME280;3283;52.330;9.772;2022-11-15T15:39:56;99993.69;;;13.20;96.69
6500;BME280;3283;52.330;9.772;2022-11-15T15:42:22;99998.00;;;13.23;96.01
6500;BME280;3283;52.330;9.772;2022-11-15T15:44:49;99983.66;;;13.30;95.49
6500;BME280;3283;52.330;9.772;2022-11-15T15:47:25;99985.59;;;13.25;94.97
6500;BME280;3283;52.330;9.772;2022-11-15T15:49:50;99960.94;;;13.26;94.34
6500;BME280;3283;52.330;9.772;2022-11-15T15:52:16;99970.19;;;13.37;93.95
6500;BME280;3283;52.330;9.772;2022-11-15T15:54:42;99965.22;;;13.28;93.96
6500;BME280;3283;52.330;9.772;2022-11-15T15:57:11;99971.00;;;13.13;94.08
6500;BME280;3283;52.330;9.772;2022-11-15T15:59:37;99964.16;;;13.07;94.46
6500;BME280;3283;52.330;9.772;2022-11-15T16:02:03;99966.66;;;13.10;94.35
6500;BME280;3283;52.330;9.772;2022-11-15T16:04:28;99962.56;;;13.02;94.58
6500;BME280;3283;52.330;9.772;2022-11-15T16:06:58;99962.28;;;12.84;95.71
6500;BME280;3283;52.330;9.772;2022-11-15T16:09:24;99969.59;;;12.76;96.55
6500;BME280;3283;52.330;9.772;2022-11-15T16:12:09;99961.28;;;12.60;98.35
6500;BME280;3283;52.330;9.772;2022-11-15T16:14:34;99963.28;;;12.52;99.56
6500;BME280;3283;52.330;9.772;2022-11-15T16:16:59;99963.41;;;12.49;100.00
6500;BME280;3283;52.330;9.772;2022-11-15T16:19:25;99966.97;;;12.48;100.00
6500;BME280;3283;52.330;9.772;2022-11-15T16:21:50;99968.13;;;12.66;100.00
6500;BME280;3283;52.330;9.772;2022-11-15T16:24:17;99958.91;;;12.79;100.00
6500;BME280;3283;52.330;9.772;2022-11-15T16:26:43;99962.50;;;13.03;100.00
6500;BME280;3283;52.330;9.772;2022-11-15T16:29:10;99952.88;;;13.29;100.00
6500;BME280;3283;52.330;9.772;2022-11-15T16:31:35;99956.66;;;13.46;100.00
6500;BME280;3283;52.330;9.772;2022-11-15T16:34:01;99950.50;;;13.46;100.00
6500;BME280;3283;52.330;9.772;2022-11-15T16:36:26;99953.25;;;13.43;100.00
6500;BME280;3283;52.330;9.772;2022-11-15T16:38:54;99944.47;;;13.42;100.00
6500;BME280;3283;52.330;9.772;2022-11-15T16:41:20;99933.72;;;12.96;100.00
6500;BME280;3283;52.330;9.772;2022-11-15T16:43:45;99942.47;;;12.98;100.00
6500;BME280;3283;52.330;9.772;2022-11-15T16:46:22;99942.34;;;13.01;100.00
6500;BME280;3283;52.330;9.772;2022-11-15T16:48:48;99946.19;;;12.92;100.00
6500;BME280;3283;52.330;9.772;2022-11-15T16:51:14;99940.78;;;12.95;100.00
6500;BME280;3283;52.330;9.772;2022-11-15T16:53:41;99948.91;;;12.89;100.00
6500;BME280;3283;52.330;9.772;2022-11-15T16:58:44;99944.31;;;12.68;100.00
6500;BME280;3283;52.330;9.772;2022-11-15T17:01:19;99941.59;;;12.71;100.00
6500;BME280;3283;52.330;9.772;2022-11-15T17:03:46;99947.03;;;12.66;100.00
6500;BME280;3283;52.330;9.772;2022-11-15T17:06:13;99951.81;;;12.25;100.00
6500;BME280;3283;52.330;9.772;2022-11-15T17:08:39;99954.00;;;12.11;100.00
6500;BME280;3283;52.330;9.772;2022-11-15T17:11:05;99947.34;;;11.99;100.00
6500;BME280;3283;52.330;9.772;2022-11-15T17:13:31;99937.91;;;11.91;100.00
6500;BME280;3283;52.330;9.772;2022-11-15T17:16:12;99934.75;;;11.78;100.00
6500;BME280;3283;52.330;9.772;2022-11-15T17:18:39;99935.09;;;11.66;100.00
6500;BME280;3283;52.330;9.772;2022-11-15T17:21:06;99929.25;;;11.54;100.00
6500;BME280;3283;52.330;9.772;2022-11-15T17:23:32;99928.66;;;11.45;100.00
6500;BME280;3283;52.330;9.772;2022-11-15T17:26:02;99917.31;;;11.41;100.00
6500;BME280;3283;52.330;9.772;2022-11-15T17:28:33;99921.88;;;11.36;100.00
6500;BME280;3283;52.330;9.772;2022-11-15T17:30:58;99915.03;;;11.29;100.00
6500;BME280;3283;52.330;9.772;2022-11-15T17:33:25;99904.72;;;11.21;100.00
6500;BME280;3283;52.330;9.772;2022-11-15T17:35:58;99913.44;;;11.23;100.00
6500;BME280;3283;52.330;9.772;2022-11-15T17:38:25;99911.88;;;11.16;100.00
6500;BME280;3283;52.330;9.772;2022-11-15T17:43:30;99913.78;;;11.10;100.00
6500;BME280;3283;52.330;9.772;2022-11-15T17:45:57;99911.19;;;11.08;100.00
6500;BME280;3283;52.330;9.772;2022-11-15T17:48:22;99903.38;;;11.05;100.00
6500;BME280;3283;52.330;9.772;2022-11-15T17:50:59;99890.41;;;10.97;100.00
6500;BME280;3283;52.330;9.772;2022-11-15T17:53:25;99902.59;;;11.02;100.00
6500;BME280;3283;52.330;9.772;2022-11-15T17:55:52;99907.94;;;10.98;100.00
6500;BME280;3283;52.330;9.772;2022-11-15T17:58:18;99900.16;;;10.94;100.00
6500;BME280;3283;52.330;9.772;2022-11-15T18:00:47;99901.91;;;10.95;100.00
6500;BME280;3283;52.330;9.772;2022-11-15T18:03:13;99899.16;;;10.98;100.00
6500;BME280;3283;52.330;9.772;2022-11-15T18:05:39;99901.91;;;10.95;100.00
6500;BME280;3283;52.330;9.772;2022-11-15T18:08:09;99902.66;;;10.98;100.00
6500;BME280;3283;52.330;9.772;2022-11-15T18:10:34;99896.47;;;11.01;100.00
6500;BME280;3283;52.330;9.772;2022-11-15T18:13:00;99896.53;;;10.99;100.00
6500;BME280;3283;52.330;9.772;2022-11-15T18:15:25;99889.44;;;11.02;100.00
6500;BME280;3283;52.330;9.772;2022-11-15T18:17:51;99891.06;;;11.06;100.00
6500;BME280;3283;52.330;9.772;2022-11-15T18:20:16;99881.38;;;11.08;100.00
6500;BME280;3283;52.330;9.772;2022-11-15T18:22:42;99882.94;;;11.15;100.00
6500;BME280;3283;52.330;9.772;2022-11-15T18:25:07;99875.63;;;11.24;100.00
6500;BME280;3283;52.330;9.772;2022-11-15T18:27:33;99866.88;;;11.24;100.00
6500;BME280;3283;52.330;9.772;2022-11-15T18:29:58;99870.09;;;11.35;100.00
6500;BME280;3283;52.330;9.772;2022-11-15T18:32:24;99862.78;;;11.45;100.00
6500;BME280;3283;52.330;9.772;2022-11-15T18:34:49;99869.53;;;11.53;100.00
6500;BME280;3283;52.330;9.772;2022-11-15T18:37:14;99852.13;;;11.49;100.00
6500;BME280;3283;52.330;9.772;2022-11-15T18:39:40;99865.78;;;11.62;100.00
6500;BME280;3283;52.330;9.772;2022-11-15T18:42:05;99869.19;;;11.66;100.00
6500;BME280;3283;52.330;9.772;2022-11-15T18:44:31;99867.25;;;11.72;100.00
6500;BME280;3283;52.330;9.772;2022-11-15T18:46:56;99870.19;;;11.62;100.00
6500;BME280;3283;52.330;9.772;2022-11-15T18:49:22;99878.94;;;11.64;100.00
6500;BME280;3283;52.330;9.772;2022-11-15T18:51:48;99874.53;;;11.64;100.00
6500;BME280;3283;52.330;9.772;2022-11-15T18:54:15;99869.47;;;11.57;100.00
6500;BME280;3283;52.330;9.772;2022-11-15T18:56:41;99866.84;;;11.57;100.00
6500;BME280;3283;52.330;9.772;2022-11-15T18:59:11;99870.34;;;11.55;100.00
6500;BME280;3283;52.330;9.772;2022-11-15T19:01:38;99864.19;;;11.57;100.00
6500;BME280;3283;52.330;9.772;2022-11-15T19:04:11;99866.69;;;11.61;100.00
6500;BME280;3283;52.330;9.772;2022-11-15T19:06:39;99859.81;;;11.55;100.00
6500;BME280;3283;52.330;9.772;2022-11-15T19:09:05;99860.66;;;11.58;100.00
6500;BME280;3283;52.330;9.772;2022-11-15T19:11:34;99857.16;;;11.57;100.00
6500;BME280;3283;52.330;9.772;2022-11-15T19:14:08;99858.06;;;11.56;100.00
6500;BME280;3283;52.330;9.772;2022-11-15T19:16:37;99842.16;;;11.59;100.00
6500;BME280;3283;52.330;9.772;2022-11-15T19:19:05;99847.31;;;11.64;100.00
6500;BME280;3283;52.330;9.772;2022-11-15T19:21:31;99837.47;;;11.69;100.00
6500;BME280;3283;52.330;9.772;2022-11-15T19:23:58;99839.28;;;11.67;100.00
6500;BME280;3283;52.330;9.772;2022-11-15T19:26:25;99840.88;;;11.72;100.00
6500;BME280;3283;52.330;9.772;2022-11-15T19:28:55;99839.97;;;11.73;100.00
6500;BME280;3283;52.330;9.772;2022-11-15T19:31:22;99844.19;;;11.80;100.00
6500;BME280;3283;52.330;9.772;2022-11-15T19:33:48;99832.94;;;11.74;100.00
6500;BME280;3283;52.330;9.772;2022-11-15T19:36:16;99829.56;;;11.69;100.00
6500;BME280;3283;52.330;9.772;2022-11-15T19:38:43;99827.72;;;11.72;100.00
6500;BME280;3283;52.330;9.772;2022-11-15T19:41:11;99827.44;;;11.81;100.00
6500;BME280;3283;52.330;9.772;2022-11-15T19:43:36;99823.53;;;11.95;100.00
6500;BME280;3283;52.330;9.772;2022-11-15T19:46:04;99821.88;;;11.92;100.00
6500;BME280;3283;52.330;9.772;2022-11-15T19:48:31;99822.47;;;12.00;100.00
6500;BME280;3283;52.330;9.772;2022-11-15T19:51:01;99826.78;;;12.03;100.00
6500;BME280;3283;52.330;9.772;2022-11-15T19:53:28;99827.75;;;12.00;100.00
6500;BME280;3283;52.330;9.772;2022-11-15T19:58:20;99822.00;;;11.88;100.00
6500;BME280;3283;52.330;9.772;2022-11-15T20:00:45;99821.81;;;11.94;100.00
6500;BME280;3283;52.330;9.772;2022-11-15T20:03:11;99821.31;;;11.81;100.00
6500;BME280;3283;52.330;9.772;2022-11-15T20:05:37;99816.13;;;11.78;100.00
6500;BME280;3283;52.330;9.772;2022-11-15T20:08:02;99816.59;;;11.92;100.00
6500;BME280;3283;52.330;9.772;2022-11-15T20:10:28;99811.66;;;11.80;100.00
6500;BME280;3283;52.330;9.772;2022-11-15T20:12:53;99813.50;;;11.76;100.00
6500;BME280;3283;52.330;9.772;2022-11-15T20:15:19;99805.66;;;11.75;100.00